首页
METAR-TAF:

METAR-TAF

机场 :

夏洛特道格拉斯國際機場

夏洛特, 北卡罗来纳州, 美国

纬度: 35-12-48N, 经度: 080-56-55W, 海拔: 228米

当前天气观测

该预报发布于1小时和6分钟前的00:52 UTC
风速6节,风向
温度 4°C
湿度 28%
气压 1035 hPa
能見度: 16.1公里
阴天层高于2900英尺

METAR: KCLT 230052Z 09006KT 10SM OVC029 04/M13 A3057 RMK AO2 SLP357 T00441133

时间: 20:58 (01:58 UTC)

预报

该预报发布于2小时和23分钟前的23:35 UTC
预报有效从23日的 00点(UTC)到 24日的 06点(UTC)
风速4节,风向东转东南
能見度: 10公里
多云层高于4000英尺
从 23日的 0700点(UTC)
风速4节,风向
能見度: 10公里
阴天层高于2500英尺
(小) 冻, 毛毛雨
从 23日的 0900点(UTC)
风速4节,风向
能見度: 10公里
阴天层高于1500英尺
几率 30%
从 23日的 09点(UTC)到 23日的 14点(UTC)
能見度: 6.4公里
阴天层高于700英尺
(小) 冻, 雨
从 23日的 1400点(UTC)
风速4节,风向东转东北
能見度: 10公里
阴天层高于900英尺
小雨
从 23日的 1600点(UTC)
风速3节,风向
能見度: 6.4公里
阴天层高于400英尺
小雨, 轻雾
从 23日的 2300点(UTC)
风速7节,风向南转南东
能見度: 6.4公里
多云层高于500英尺
小雨, 轻雾

TAF: KCLT 222335Z 2300/2406 12004KT P6SM BKN040 FM230700 09004KT P6SM -FZDZ OVC025 FM230900 09004KT P6SM OVC015 PROB30 2309/2314 4SM -FZRA OVC007 FM231400 07004KT P6SM -RA OVC009 FM231600 10003KT 4SM -RA BR OVC004 WS020/19030KT FM232300 16007KT 4SM -RA BR BKN005 WS020/19030KT

超过4000个机场的气象观测和天气预报(METAR&TAF报告)。

可查询的气象台以黄色和红色小点在地图上表示。

将鼠标移到小点上方,可查看气象台名称。

然后点击查看天气观测和预报。

如需切换地图:点击带黑十字的绿色按钮放大地图;点击带横线的绿色按钮缩小地图;或者点击绿色箭头查看邻近地区的地图。


METAR-TAF: